MIB weather

Minot Air Force Base
Minot, North Dakota, United States

Public forecast

Using degrees Fahrenheit for public forecast. Weather courtesy of forecast.io.

METAR (pilot weather report)

Retrieved 2019/09/16 18:56 UTC (18 minutes ago):

KMIB 161856Z AUTO 10005KT 10SM CLR 27/18 A2969 RMK AO2 SLP053 T02650183 $

TAF (pilot weather forecast)

Forecast is more than 6 hours old.

Retrieved 2019/09/16 09:06 UTC (10 hours ago):

TAF KMIB 160900Z 1609/1715 VRB06KT 9999 SKC QNH2957INS TX27/1622Z TN12/1612Z